Time;durP1;ratioP1;P1;durP2;ratioP2;P2;SDS_P1;SDS_P2;PMS_P1;PMS_P2;Temp;Humidity;BMP_temperature;BMP_pressure;BME280_temperature;BME280_humidity;BME280_pressure;Samples;Min_cycle;Max_cycle;Signal;HPM_P1;HPM_P2
2024/01/20 00:02:23;;;;;;;40.23;22.47;;;;;;;-1.87;100.00;102653.34;5130784;27;20460;-38
2024/01/20 00:04:49;;;;;;;36.90;21.70;;;;;;;-1.76;100.00;102665.03;5130362;28;20463;-38
2024/01/20 00:07:14;;;;;;;35.20;21.47;;;;;;;-1.78;100.00;102664.31;5121656;28;20494;-38
2024/01/20 00:09:39;;;;;;;41.00;23.20;;;;;;;-1.77;100.00;102660.69;5117180;28;20024;-38
2024/01/20 00:12:05;;;;;;;36.33;22.13;;;;;;;-1.75;100.00;102664.09;5116940;28;20564;-38
2024/01/20 00:14:30;;;;;;;38.85;22.25;;;;;;;-1.74;100.00;102665.78;5116132;28;20378;-38
2024/01/20 00:16:56;;;;;;;39.63;21.67;;;;;;;-1.73;100.00;102676.28;5116562;28;20118;-38
2024/01/20 00:19:21;;;;;;;35.50;21.67;;;;;;;-1.72;100.00;102677.13;5116487;28;20024;-38
2024/01/20 00:21:46;;;;;;;35.30;21.30;;;;;;;-1.72;100.00;102672.66;5116735;28;20456;-38
2024/01/20 00:24:12;;;;;;;34.60;20.07;;;;;;;-1.68;100.00;102675.97;5116292;28;20035;-38
2024/01/20 00:26:37;;;;;;;38.07;21.70;;;;;;;-1.68;100.00;102682.13;5116416;28;20127;-38
2024/01/20 00:29:03;;;;;;;36.53;21.93;;;;;;;-1.67;100.00;102677.66;5116239;28;20059;-38
2024/01/20 00:31:28;;;;;;;31.98;18.88;;;;;;;-1.63;100.00;102682.66;5116569;28;20024;-38
2024/01/20 00:33:54;;;;;;;36.85;23.00;;;;;;;-1.67;100.00;102675.00;5116465;28;20416;-38
2024/01/20 00:36:19;;;;;;;31.13;19.40;;;;;;;-1.63;100.00;102663.22;5116878;28;20024;-38
2024/01/20 00:38:44;;;;;;;31.40;20.33;;;;;;;-1.69;100.00;102664.50;5116436;28;20079;-38
2024/01/20 00:41:10;;;;;;;36.93;20.23;;;;;;;-1.71;100.00;102647.84;5116820;28;20059;-38
2024/01/20 00:43:36;;;;;;;36.75;21.13;;;;;;;-1.71;100.00;102668.22;5116551;28;20305;-38
2024/01/20 00:46:01;;;;;;;33.47;20.48;;;;;;;-1.73;100.00;102665.69;5116542;28;20063;-38
2024/01/20 00:48:27;;;;;;;35.05;20.05;;;;;;;-1.70;100.00;102669.94;5115938;28;20023;-38
2024/01/20 00:50:52;;;;;;;32.40;18.67;;;;;;;-1.73;100.00;102670.13;5115615;28;20034;-38
2024/01/20 00:53:17;;;;;;;32.70;17.67;;;;;;;-1.72;100.00;102663.88;5116038;28;20076;-38
2024/01/20 00:55:43;;;;;;;32.53;20.90;;;;;;;-1.72;100.00;102666.50;5116102;28;20024;-38
2024/01/20 00:58:09;;;;;;;32.17;18.20;;;;;;;-1.70;100.00;102659.31;5116414;28;20043;-38
2024/01/20 01:00:35;;;;;;;34.35;19.80;;;;;;;-1.77;100.00;102658.88;5116318;28;20112;-38
2024/01/20 01:03:00;;;;;;;34.58;18.20;;;;;;;-1.76;100.00;102654.41;5115933;28;20031;-38
2024/01/20 01:05:25;;;;;;;31.83;19.93;;;;;;;-1.78;100.00;102666.94;5115675;28;20099;-38
2024/01/20 01:07:51;;;;;;;30.70;18.30;;;;;;;-1.78;100.00;102666.94;5116112;28;20027;-38
2024/01/20 01:10:16;;;;;;;31.93;19.47;;;;;;;-1.85;100.00;102654.13;5115828;27;20096;-38
2024/01/20 01:12:42;;;;;;;28.88;17.20;;;;;;;-1.93;100.00;102643.19;5115517;28;20024;-38
2024/01/20 01:15:07;;;;;;;30.67;18.87;;;;;;;-1.82;100.00;102664.50;5115344;28;20490;-38
2024/01/20 01:17:33;;;;;;;31.52;18.15;;;;;;;-1.75;100.00;102667.59;5115210;28;20023;-38
2024/01/20 01:19:58;;;;;;;33.20;18.87;;;;;;;-1.70;100.00;102670.78;5114835;28;20024;-38
2024/01/20 01:22:24;;;;;;;33.10;18.77;;;;;;;-1.75;100.00;102666.75;5115048;28;20024;-38
2024/01/20 01:24:49;;;;;;;33.20;19.17;;;;;;;-1.75;100.00;102666.75;5115505;28;20077;-38
2024/01/20 01:27:14;;;;;;;29.10;17.17;;;;;;;-1.72;100.00;102672.66;5115196;28;20368;-38
2024/01/20 01:29:40;;;;;;;32.67;18.43;;;;;;;-1.78;100.00;102665.13;5115414;28;20114;-38
2024/01/20 01:32:05;;;;;;;29.73;17.57;;;;;;;-1.76;100.00;102675.63;5115248;28;20648;-38
2024/01/20 01:34:30;;;;;;;30.93;17.77;;;;;;;-1.77;100.00;102668.63;5114638;28;20459;-38
2024/01/20 01:36:56;;;;;;;29.73;18.23;;;;;;;-1.81;100.00;102673.28;5115327;28;20027;-38
2024/01/20 01:39:21;;;;;;;31.90;18.47;;;;;;;-1.82;100.00;102677.75;5114981;28;20055;-38
2024/01/20 01:41:47;;;;;;;30.77;19.27;;;;;;;-1.81;100.00;102683.91;5115180;28;20032;-38
2024/01/20 01:44:12;;;;;;;33.50;19.17;;;;;;;-1.85;100.00;102671.84;5115727;28;20448;-38
2024/01/20 01:46:39;;;;;;;34.13;19.83;;;;;;;-1.87;100.00;102673.72;5115313;28;20043;-38
2024/01/20 01:49:05;;;;;;;30.10;18.13;;;;;;;-1.84;100.00;102684.13;5114776;28;20045;-38
2024/01/20 01:51:31;;;;;;;;;;;;;;;-1.84;100.00;102687.63;5115995;27;20342;-38
2024/01/20 01:54:00;;;;;;;32.75;18.08;;;;;;;-1.88;100.00;102683.50;5114403;28;19915;-38
2024/01/20 01:56:26;;;;;;;32.22;18.40;;;;;;;-1.86;100.00;102689.53;5115020;28;20375;-38
2024/01/20 01:58:51;;;;;;;32.42;18.33;;;;;;;-1.87;100.00;102694.94;5115145;28;20094;-38
2024/01/20 02:01:16;;;;;;;30.30;17.77;;;;;;;-1.89;100.00;102696.88;5115016;28;20042;-38
2024/01/20 02:03:42;;;;;;;27.93;18.00;;;;;;;-1.89;100.00;102695.06;5114766;28;20028;-38
2024/01/20 02:06:07;;;;;;;33.27;18.57;;;;;;;-1.97;100.00;102680.63;5114928;28;20059;-38
2024/01/20 02:08:34;;;;;;;29.52;17.80;;;;;;;-1.98;100.00;102692.19;5114341;27;20456;-38
2024/01/20 02:11:01;;;;;;;31.88;18.40;;;;;;;-1.94;100.00;102705.13;5114863;28;20092;-38
2024/01/20 02:13:27;;;;;;;27.67;17.55;;;;;;;-1.92;100.00;102712.97;5114595;28;20035;-38
2024/01/20 02:15:53;;;;;;;28.75;17.25;;;;;;;-1.96;100.00;102708.81;5113885;28;20027;-38
2024/01/20 02:18:21;;;;;;;31.70;17.35;;;;;;;-1.92;100.00;102721.78;5114181;28;20059;-38
2024/01/20 02:20:46;;;;;;;28.90;17.83;;;;;;;-1.91;100.00;102725.28;5114487;28;20034;-38
2024/01/20 02:23:12;;;;;;;32.10;18.70;;;;;;;-2.04;100.00;102712.00;5113933;28;20459;-38
2024/01/20 02:25:37;;;;;;;36.80;18.60;;;;;;;-1.95;100.00;102735.25;5113763;28;20036;-38
2024/01/20 02:28:03;;;;;;;31.67;18.47;;;;;;;-2.05;100.00;102712.94;5114726;28;20023;-38
2024/01/20 02:30:28;;;;;;;29.25;17.92;;;;;;;-1.98;100.00;102724.84;5114062;28;20077;-38
2024/01/20 02:32:54;;;;;;;33.40;19.90;;;;;;;-2.05;100.00;102710.28;5114576;28;20031;-38
2024/01/20 02:35:20;;;;;;;31.70;18.70;;;;;;;-1.98;100.00;102722.19;5113977;28;20031;-38
2024/01/20 02:37:45;;;;;;;29.02;17.85;;;;;;;-1.98;100.00;102718.69;5114012;28;20123;-38
2024/01/20 02:40:10;;;;;;;32.73;18.37;;;;;;;-2.08;100.00;102703.41;5114000;28;20077;-38
2024/01/20 02:42:36;;;;;;;33.30;17.70;;;;;;;-2.01;100.00;102717.09;5113899;28;20036;-38
2024/01/20 02:45:01;;;;;;;30.07;18.23;;;;;;;-2.00;100.00;102707.31;5114167;28;20282;-38
2024/01/20 02:47:27;;;;;;;30.77;17.67;;;;;;;-1.99;100.00;102707.25;5113822;28;20486;-38
2024/01/20 02:49:52;;;;;;;28.97;17.67;;;;;;;-2.03;100.00;102715.50;5114083;28;20265;-38
2024/01/20 02:52:17;;;;;;;29.77;18.27;;;;;;;-1.99;100.00;102717.84;5114320;28;20084;-38
2024/01/20 02:54:43;;;;;;;32.33;18.87;;;;;;;-2.08;100.00;102714.00;5113415;28;20104;-38
2024/01/20 02:57:08;;;;;;;25.90;17.03;;;;;;;-2.03;100.00;102711.03;5114523;28;20051;-38
2024/01/20 02:59:33;;;;;;;29.33;17.40;;;;;;;-2.14;100.00;102703.81;5113777;28;20038;-38
2024/01/20 03:02:01;;;;;;;33.13;19.53;;;;;;;-2.18;100.00;102704.97;5114240;28;20023;-38
2024/01/20 03:04:27;;;;;;;29.40;18.05;;;;;;;-2.11;100.00;102714.19;5114119;28;20027;-39
2024/01/20 03:06:52;;;;;;;29.10;17.73;;;;;;;-2.23;100.00;102704.44;5113415;28;20035;-38
2024/01/20 03:09:18;;;;;;;29.07;17.10;;;;;;;-2.12;100.00;102727.56;5113629;28;20024;-38
2024/01/20 03:11:43;;;;;;;30.20;17.67;;;;;;;-2.25;100.00;102710.78;5113285;28;20020;-38
2024/01/20 03:14:09;;;;;;;28.57;16.80;;;;;;;-2.11;100.00;102732.75;5113248;28;20031;-38
2024/01/20 03:16:35;;;;;;;28.80;17.52;;;;;;;-2.08;100.00;102739.66;5114329;28;20050;-38
2024/01/20 03:19:00;;;;;;;29.30;17.23;;;;;;;-2.07;100.00;102741.38;5113464;28;20448;-38
2024/01/20 03:21:25;;;;;;;27.43;17.50;;;;;;;-2.06;100.00;102740.41;5113537;28;20023;-38
2024/01/20 03:23:53;;;;;;;28.00;16.70;;;;;;;-2.00;100.00;102742.66;5113802;28;20111;-38
2024/01/20 03:26:19;;;;;;;30.33;17.63;;;;;;;-2.01;100.00;102737.44;5113716;28;20460;-38
2024/01/20 03:28:44;;;;;;;29.52;17.60;;;;;;;-2.05;100.00;102731.50;5114018;28;20066;-38
2024/01/20 03:31:10;;;;;;;30.53;17.80;;;;;;;-1.96;100.00;102738.00;5113740;28;20029;-38
2024/01/20 03:33:35;;;;;;;28.33;17.27;;;;;;;-1.95;100.00;102735.25;5113625;28;20088;-38
2024/01/20 03:36:01;;;;;;;27.67;17.00;;;;;;;-1.92;100.00;102740.34;5113365;28;20024;-38
2024/01/20 03:38:26;;;;;;;29.00;17.20;;;;;;;-1.94;100.00;102734.28;5114213;28;20515;-38
2024/01/20 03:40:51;;;;;;;28.40;17.50;;;;;;;-1.91;100.00;102741.19;5113391;28;20028;-38
2024/01/20 03:43:17;;;;;;;27.27;16.80;;;;;;;-1.97;100.00;102733.66;5117462;28;20044;-38
2024/01/20 03:45:43;;;;;;;28.90;18.00;;;;;;;-1.90;100.00;102741.09;5116818;28;20032;-38
2024/01/20 03:48:08;;;;;;;30.10;18.70;;;;;;;-1.91;100.00;102751.78;5116932;28;20035;-38
2024/01/20 03:50:34;;;;;;;29.27;17.33;;;;;;;-1.93;100.00;102736.00;5117265;28;20031;-38
2024/01/20 03:53:00;;;;;;;27.58;17.20;;;;;;;-1.86;100.00;102747.88;5117028;28;20443;-38
2024/01/20 03:55:25;;;;;;;28.53;18.10;;;;;;;-1.86;100.00;102749.69;5116834;28;20031;-38
2024/01/20 03:57:50;;;;;;;31.23;17.43;;;;;;;-1.99;100.00;102719.66;5117916;28;20273;-38
2024/01/20 04:00:16;;;;;;;27.27;16.07;;;;;;;-1.83;100.00;102738.88;5116697;28;20055;-38
2024/01/20 04:02:41;;;;;;;28.25;17.23;;;;;;;-1.82;100.00;102745.88;5117042;28;20055;-38
2024/01/20 04:05:07;;;;;;;28.60;16.40;;;;;;;-1.85;100.00;102740.78;5116421;28;20051;-38
2024/01/20 04:07:32;;;;;;;29.10;17.48;;;;;;;-1.84;100.00;102739.81;5116962;27;20132;-38
2024/01/20 04:09:58;;;;;;;27.97;16.93;;;;;;;-1.82;100.00;102745.88;5116623;28;20023;-38
2024/01/20 04:12:24;;;;;;;27.67;16.83;;;;;;;-1.88;100.00;102738.34;5116292;28;20047;-38
2024/01/20 04:14:49;;;;;;;29.95;18.00;;;;;;;-1.83;100.00;102752.13;5116483;28;20024;-38
2024/01/20 04:17:15;;;;;;;29.98;17.45;;;;;;;-1.90;100.00;102738.44;5116562;28;20459;-38
2024/01/20 04:19:40;;;;;;;27.63;16.50;;;;;;;-1.88;100.00;102741.00;5116394;28;20027;-38
2024/01/20 04:22:06;;;;;;;27.87;16.27;;;;;;;-1.83;100.00;102755.63;5116208;28;20034;-38
2024/01/20 04:24:31;;;;;;;27.10;16.93;;;;;;;-1.80;100.00;102753.75;5116403;28;20019;-38
2024/01/20 04:26:56;;;;;;;24.67;15.77;;;;;;;-1.86;100.00;102744.38;5116930;28;20053;-38
2024/01/20 04:29:22;;;;;;;30.83;17.33;;;;;;;-1.82;100.00;102754.66;5116814;28;20452;-38
2024/01/20 04:31:47;;;;;;;27.40;16.13;;;;;;;-1.78;100.00;102762.44;5116858;28;20172;-38
2024/01/20 04:34:12;;;;;;;25.37;16.23;;;;;;;-1.75;100.00;102768.38;5116272;28;20478;-38
2024/01/20 04:36:38;;;;;;;30.07;17.53;;;;;;;-1.77;100.00;102762.31;5116597;28;20020;-38
2024/01/20 04:39:03;;;;;;;28.47;16.83;;;;;;;-1.80;100.00;102751.94;5116378;28;20157;-38
2024/01/20 04:41:28;;;;;;;27.33;16.70;;;;;;;-1.75;100.00;102768.38;5116432;28;20049;-38
2024/01/20 04:43:54;;;;;;;28.77;17.97;;;;;;;-1.74;100.00;102764.78;5116827;28;20031;-38
2024/01/20 04:46:19;;;;;;;29.67;17.13;;;;;;;-1.74;100.00;102769.22;5116058;28;20053;-38
2024/01/20 04:48:44;;;;;;;25.33;16.53;;;;;;;-1.76;100.00;102771.97;5116162;28;20032;-39
2024/01/20 04:51:10;;;;;;;26.67;16.23;;;;;;;-1.74;100.00;102769.22;5116715;28;20024;-38
2024/01/20 04:53:35;;;;;;;28.50;17.67;;;;;;;-1.77;100.00;102778.22;5115655;28;20494;-38
2024/01/20 04:56:04;;;;;;;27.77;16.97;;;;;;;-1.77;100.00;102774.72;5115514;27;20027;-38
2024/01/20 04:58:31;;;;;;;26.30;16.35;;;;;;;-1.82;100.00;102764.44;5116440;27;20076;-38
2024/01/20 05:00:56;;;;;;;27.83;16.85;;;;;;;-1.85;100.00;102765.50;5115972;28;20038;-38
2024/01/20 05:03:22;;;;;;;26.00;16.97;;;;;;;-1.77;100.00;102774.72;5115733;28;20523;-38
2024/01/20 05:05:47;;;;;;;27.33;17.20;;;;;;;-1.75;100.00;102776.34;5115750;28;20043;-38
2024/01/20 05:08:12;;;;;;;23.70;15.67;;;;;;;-1.76;100.00;102773.78;5115537;28;20042;-38
2024/01/20 05:10:38;;;;;;;29.83;17.87;;;;;;;-1.76;100.00;102774.63;5115588;28;20055;-38
2024/01/20 05:13:03;;;;;;;26.33;16.23;;;;;;;-1.74;100.00;102780.69;5115837;28;20031;-38
2024/01/20 05:15:29;;;;;;;27.75;16.48;;;;;;;-1.76;100.00;102787.03;5115415;27;20081;-38
2024/01/20 05:17:55;;;;;;;;;;;;;;;-1.74;100.00;102775.38;5115858;27;20475;-38
2024/01/20 05:20:20;;;;;;;25.58;15.52;;;;;;;-1.75;100.00;102784.31;5115047;28;19924;-38
2024/01/20 05:22:46;;;;;;;28.47;16.60;;;;;;;-1.78;100.00;102788.94;5115848;28;20058;-38
2024/01/20 05:25:11;;;;;;;26.50;16.77;;;;;;;-1.80;100.00;102785.56;5115661;28;20418;-38
2024/01/20 05:27:37;;;;;;;25.95;16.02;;;;;;;-1.76;100.00;102790.53;5115513;28;20020;-38
2024/01/20 05:30:02;;;;;;;24.27;15.23;;;;;;;-1.75;100.00;102794.91;5114764;28;20032;-38
2024/01/20 05:32:28;;;;;;;31.13;17.15;;;;;;;-1.89;100.00;102776.41;5115645;28;20055;-38
2024/01/20 05:34:53;;;;;;;25.70;17.10;;;;;;;-1.78;100.00;102794.25;5115262;28;20340;-38
2024/01/20 05:37:18;;;;;;;29.73;16.63;;;;;;;-1.79;100.00;102797.88;5115498;28;20056;-38
2024/01/20 05:39:44;;;;;;;29.47;16.83;;;;;;;-1.78;100.00;102799.56;5114883;28;20028;-38
2024/01/20 05:42:09;;;;;;;25.20;15.10;;;;;;;-1.85;100.00;102783.22;5115781;28;20023;-38
2024/01/20 05:44:34;;;;;;;24.63;15.90;;;;;;;-1.78;100.00;102800.41;5114706;28;20038;-38
2024/01/20 05:47:00;;;;;;;25.17;15.53;;;;;;;-1.77;100.00;102803.91;5114550;27;20020;-38
2024/01/20 05:49:25;;;;;;;27.70;17.23;;;;;;;-1.78;100.00;102797.75;5114818;28;20031;-38
2024/01/20 05:51:51;;;;;;;27.55;17.17;;;;;;;-1.79;100.00;102805.81;5115001;27;20032;-38
2024/01/20 05:54:16;;;;;;;26.23;15.13;;;;;;;-1.73;100.00;102810.72;5114305;28;20019;-38
2024/01/20 05:56:41;;;;;;;20.60;13.97;;;;;;;-1.72;100.00;102809.75;5114791;28;20130;-38
2024/01/20 05:59:07;;;;;;;24.10;14.90;;;;;;;-1.72;100.00;102818.56;5114323;28;20028;-38
2024/01/20 06:01:32;;;;;;;24.37;15.07;;;;;;;-1.68;100.00;102811.25;5114553;28;20080;-38
2024/01/20 06:03:57;;;;;;;23.97;15.20;;;;;;;-1.74;100.00;102807.22;5114305;28;20023;-38
2024/01/20 06:06:23;;;;;;;25.83;15.40;;;;;;;-1.72;100.00;102805.28;5114333;28;20464;-38
2024/01/20 06:08:48;;;;;;;23.97;14.90;;;;;;;-1.75;100.00;102815.28;5114330;28;20030;-38
2024/01/20 06:11:13;;;;;;;22.13;15.33;;;;;;;-1.84;100.00;102795.53;5114535;27;20019;-38
2024/01/20 06:13:39;;;;;;;21.60;14.73;;;;;;;-1.89;100.00;102802.94;5114421;28;20024;-38
2024/01/20 06:16:05;;;;;;;23.13;15.07;;;;;;;-1.79;100.00;102824.41;5114259;28;20027;-38
2024/01/20 06:18:31;;;;;;;24.40;15.38;;;;;;;-2.00;100.00;102794.81;5113947;28;20031;-38
2024/01/20 06:21:00;;;;;;;28.80;16.75;;;;;;;-1.92;100.00;102819.03;5113871;28;20028;-38
2024/01/20 06:23:26;;;;;;;24.10;14.77;;;;;;;-1.86;100.00;102818.63;5114491;28;20030;-38
2024/01/20 06:25:52;;;;;;;24.05;15.88;;;;;;;-1.86;100.00;102824.78;5114116;28;20028;-38
2024/01/20 06:28:17;;;;;;;26.83;16.77;;;;;;;-1.88;100.00;102832.00;5113809;28;20407;-38
2024/01/20 06:30:46;;;;;;;21.00;14.48;;;;;;;-1.89;100.00;102834.75;5114492;28;20312;-38
2024/01/20 06:33:11;;;;;;;23.42;15.13;;;;;;;-1.93;100.00;102828.81;5113405;28;20034;-38
2024/01/20 06:35:37;;;;;;;22.67;15.77;;;;;;;-1.97;100.00;102814.03;5112310;28;20031;-38
2024/01/20 06:38:02;;;;;;;25.03;15.93;;;;;;;-1.94;100.00;102832.41;5114135;28;20253;-38
2024/01/20 06:40:27;;;;;;;22.45;15.13;;;;;;;-1.89;100.00;102834.75;5114088;28;20031;-38
2024/01/20 06:42:53;;;;;;;24.63;14.97;;;;;;;-1.86;100.00;102830.06;5113642;28;20375;-38
2024/01/20 06:45:18;;;;;;;22.33;14.00;;;;;;;-1.85;100.00;102836.25;5114105;28;20032;-38
2024/01/20 06:47:43;;;;;;;21.37;14.80;;;;;;;-1.87;100.00;102839.00;5112587;28;20085;-38
2024/01/20 06:50:11;;;;;;;26.10;16.50;;;;;;;-1.89;100.00;102856.81;5113694;28;20024;-38
2024/01/20 06:52:36;;;;;;;22.08;14.38;;;;;;;-1.87;100.00;102854.06;5113549;28;20042;-38
2024/01/20 06:55:02;;;;;;;25.43;15.80;;;;;;;-1.88;100.00;102860.31;5113376;28;20032;-39
2024/01/20 06:57:29;;;;;;;22.67;14.90;;;;;;;-1.91;100.00;102861.34;5114208;28;20047;-39
2024/01/20 06:59:55;;;;;;;20.40;13.98;;;;;;;-1.91;100.00;102861.34;5113350;28;20369;-39
2024/01/20 07:02:20;;;;;;;24.57;16.87;;;;;;;-1.99;100.00;102845.13;5113613;28;20092;-39
2024/01/20 07:04:45;;;;;;;22.47;15.30;;;;;;;-1.85;100.00;102845.06;5111761;28;20638;-39
2024/01/20 07:07:12;;;;;;;22.93;16.07;;;;;;;-1.91;100.00;102840.13;5113074;28;20097;-39
2024/01/20 07:09:40;;;;;;;22.70;14.73;;;;;;;-1.90;100.00;102844.53;5112957;28;20038;-38
2024/01/20 07:12:07;;;;;;;23.70;15.10;;;;;;;-1.91;100.00;102845.44;5113305;28;20034;-38
2024/01/20 07:14:32;;;;;;;23.15;15.48;;;;;;;-1.91;100.00;102861.34;5113180;28;20027;-38
2024/01/20 07:16:57;;;;;;;21.67;14.33;;;;;;;-1.86;100.00;102861.06;5114882;28;20027;-38
2024/01/20 07:19:23;;;;;;;22.63;15.93;;;;;;;-1.88;100.00;102842.59;5117377;27;20036;-38
2024/01/20 07:21:48;;;;;;;24.03;16.17;;;;;;;-1.88;100.00;102847.91;5117635;28;20024;-38
2024/01/20 07:24:14;;;;;;;24.03;16.87;;;;;;;-1.86;100.00;102856.59;5117698;28;20024;-38
2024/01/20 07:26:39;;;;;;;23.83;14.85;;;;;;;-1.86;100.00;102859.25;5117809;28;20467;-38
2024/01/20 07:29:05;;;;;;;18.60;13.93;;;;;;;-1.84;100.00;102849.41;5116851;28;20027;-39
2024/01/20 07:31:31;;;;;;;23.05;14.52;;;;;;;-1.81;100.00;102851.00;5117632;28;20261;-39
2024/01/20 07:33:56;;;;;;;22.30;14.53;;;;;;;-1.79;100.00;102853.56;5117085;28;20100;-39
2024/01/20 07:36:21;;;;;;;24.33;16.23;;;;;;;-1.86;100.00;102856.59;5117017;28;20048;-39
2024/01/20 07:38:46;;;;;;;23.33;15.30;;;;;;;-1.83;100.00;102863.53;5115643;28;20036;-39
2024/01/20 07:41:12;;;;;;;26.37;15.07;;;;;;;-1.94;100.00;102853.63;5117280;28;20027;-39
2024/01/20 07:43:37;;;;;;;23.40;15.43;;;;;;;-1.88;100.00;102862.97;5116952;28;20110;-39
2024/01/20 07:46:03;;;;;;;21.40;14.97;;;;;;;-1.88;100.00;102873.59;5116962;28;20039;-39
2024/01/20 07:48:28;;;;;;;22.63;15.80;;;;;;;-1.86;100.00;102867.22;5116455;28;20061;-39
2024/01/20 07:50:54;;;;;;;21.60;15.47;;;;;;;-1.93;100.00;102865.91;5116583;28;20024;-39
2024/01/20 07:53:19;;;;;;;20.85;14.88;;;;;;;-1.96;100.00;102859.97;5116933;28;20027;-39
2024/01/20 07:55:45;;;;;;;20.65;15.93;;;;;;;-1.86;100.00;102875.16;5116957;28;20069;-39
2024/01/20 07:58:10;;;;;;;23.00;15.97;;;;;;;-1.97;100.00;102869.72;5116425;28;20047;-38
2024/01/20 08:00:36;;;;;;;24.30;15.60;;;;;;;-1.87;100.00;102875.28;5117301;28;20023;-38
2024/01/20 08:03:01;;;;;;;21.80;14.60;;;;;;;-1.88;100.00;102882.38;5116447;28;20055;-38
2024/01/20 08:05:26;;;;;;;22.13;15.20;;;;;;;-1.85;100.00;102890.16;5116812;28;20208;-38
2024/01/20 08:07:52;;;;;;;22.63;15.67;;;;;;;-1.82;100.00;102884.63;5116687;28;20114;-38
2024/01/20 08:10:17;;;;;;;22.67;15.30;;;;;;;-1.82;100.00;102878.47;5116874;28;20050;-38
2024/01/20 08:12:43;;;;;;;19.70;14.65;;;;;;;-1.84;100.00;102873.28;5116300;28;20028;-38
2024/01/20 08:15:08;;;;;;;19.90;15.30;;;;;;;-1.76;100.00;102887.81;5116414;28;20032;-38
2024/01/20 08:17:34;;;;;;;22.30;15.48;;;;;;;-1.86;100.00;102884.94;5116299;28;20424;-38
2024/01/20 08:19:59;;;;;;;21.33;15.83;;;;;;;-1.91;100.00;102871.97;5115852;28;20031;-38
2024/01/20 08:22:24;;;;;;;19.57;14.43;;;;;;;-1.75;100.00;102895.72;5116841;28;20024;-38
2024/01/20 08:24:50;;;;;;;21.07;15.80;;;;;;;-1.77;100.00;102896.75;5116085;28;20039;-38
2024/01/20 08:27:15;;;;;;;22.23;15.70;;;;;;;-1.74;100.00;102904.50;5116323;28;20452;-38
2024/01/20 08:29:41;;;;;;;21.07;15.00;;;;;;;-1.75;100.00;102900.16;5116445;28;20020;-39
2024/01/20 08:32:06;;;;;;;23.03;16.10;;;;;;;-1.71;100.00;102901.63;5116054;28;20027;-39
2024/01/20 08:34:31;;;;;;;19.87;14.53;;;;;;;-1.70;100.00;102903.38;5116326;28;20072;-39
2024/01/20 08:36:57;;;;;;;20.97;15.63;;;;;;;-1.74;100.00;102902.69;5116748;28;20081;-39
2024/01/20 08:39:22;;;;;;;22.13;15.73;;;;;;;-1.73;100.00;102919.47;5117063;28;20411;-47
2024/01/20 08:41:47;;;;;;;23.87;15.73;;;;;;;-1.74;100.00;102917.78;5116159;28;20257;-39
2024/01/20 08:44:16;;;;;;;21.60;15.87;;;;;;;-1.74;100.00;102912.47;5115967;28;20071;-39
2024/01/20 08:46:41;;;;;;;21.08;15.30;;;;;;;-1.62;100.00;102906.34;5116550;28;20019;-39
2024/01/20 08:49:07;;;;;;;20.10;14.47;;;;;;;-1.58;100.00;102918.47;5116300;27;20054;-39
2024/01/20 08:51:32;;;;;;;19.52;15.05;;;;;;;-1.55;100.00;102918.28;5116018;28;20027;-39
2024/01/20 08:53:57;;;;;;;22.00;15.67;;;;;;;-1.47;100.00;102915.94;5116216;27;20028;-39
2024/01/20 08:56:23;;;;;;;22.30;16.17;;;;;;;-1.47;100.00;102910.63;5115776;28;20019;-39
2024/01/20 08:58:48;;;;;;;19.63;14.50;;;;;;;-1.45;100.00;102902.59;5115598;28;20028;-39
2024/01/20 09:01:16;;;;;;;20.23;14.37;;;;;;;-1.41;100.00;102912.91;5116379;28;20028;-39
2024/01/20 09:03:41;;;;;;;21.83;15.93;;;;;;;-1.38;100.00;102917.97;5115705;27;20035;-39
2024/01/20 09:06:06;;;;;;;20.30;15.03;;;;;;;-1.39;100.00;102902.16;5115663;28;20061;-39
2024/01/20 09:08:32;;;;;;;18.98;14.13;;;;;;;-1.40;100.00;102901.31;5115583;28;20057;-39
2024/01/20 09:10:58;;;;;;;23.53;16.03;;;;;;;-1.41;100.00;102904.94;5116099;28;20102;-39
2024/01/20 09:13:23;;;;;;;19.97;15.73;;;;;;;-1.37;100.00;102917.03;5116146;27;20027;-39
2024/01/20 09:15:49;;;;;;;21.10;14.97;;;;;;;-1.36;100.00;102933.81;5116231;28;20039;-39
2024/01/20 09:18:17;;;;;;;20.02;15.35;;;;;;;-1.45;100.00;102913.19;5115484;28;20025;-39
2024/01/20 09:20:42;;;;;;;23.58;15.52;;;;;;;-1.40;100.00;102921.72;5115157;28;20027;-39
2024/01/20 09:23:07;;;;;;;19.30;14.83;;;;;;;-1.39;100.00;102926.06;5115404;28;20038;-39
2024/01/20 09:25:33;;;;;;;18.47;14.73;;;;;;;-1.52;100.00;102914.53;5115304;28;20036;-39
2024/01/20 09:27:59;;;;;;;22.20;15.57;;;;;;;-1.35;100.00;102928.41;5115483;28;20081;-39
2024/01/20 09:30:25;;;;;;;20.15;14.60;;;;;;;-1.32;100.00;102919.38;5115244;28;20452;-39
2024/01/20 09:32:50;;;;;;;18.40;13.57;;;;;;;-1.21;100.00;102927.50;5115712;28;20061;-39
2024/01/20 09:35:16;;;;;;;25.37;15.27;;;;;;;-1.22;100.00;102928.44;5114788;28;20379;-39
2024/01/20 09:37:41;;;;;;;20.47;15.10;;;;;;;-1.26;100.00;102924.28;5115846;28;20028;-39
2024/01/20 09:40:07;;;;;;;22.87;16.33;;;;;;;-1.26;100.00;102928.75;5114174;28;20038;-39
2024/01/20 09:42:33;;;;;;;20.58;15.43;;;;;;;-1.27;100.00;102924.38;5114923;28;20015;-39
2024/01/20 09:44:59;;;;;;;20.75;14.95;;;;;;;-1.24;100.00;102932.16;5114951;28;20020;-39
2024/01/20 09:47:24;;;;;;;19.83;14.77;;;;;;;-1.18;100.00;102937.88;5114642;28;20038;-39
2024/01/20 09:49:50;;;;;;;20.63;15.37;;;;;;;-1.24;100.00;102937.47;5115078;28;20062;-39
2024/01/20 09:52:53;;;;;;;17.53;14.00;;;;;;;-1.24;100.00;102948.06;5115550;28;20047;-39
2024/01/20 09:55:23;;;;;;;21.00;15.38;;;;;;;-1.19;100.00;102953.94;5114912;28;20031;-39
2024/01/20 09:57:50;;;;;;;22.17;15.13;;;;;;;-1.14;100.00;102950.00;5114118;28;20036;-39
2024/01/20 10:00:16;;;;;;;18.80;14.45;;;;;;;-1.13;100.00;102953.50;5114894;28;20032;-39
2024/01/20 10:02:47;;;;;;;21.38;15.55;;;;;;;-1.11;100.00;102959.59;5114525;28;20077;-39
2024/01/20 10:05:13;;;;;;;19.13;14.40;;;;;;;-1.07;100.00;102956.63;5114617;28;20106;-39
2024/01/20 10:07:39;;;;;;;19.33;14.63;;;;;;;-1.10;100.00;102942.69;5114739;28;20035;-39
2024/01/20 10:10:11;;;;;;;19.60;15.13;;;;;;;-1.04;100.00;102959.03;5114236;28;20028;-39
2024/01/20 10:12:36;;;;;;;23.00;16.38;;;;;;;-1.08;100.00;102938.13;5114385;28;20027;-39
2024/01/20 10:15:03;;;;;;;19.10;15.07;;;;;;;-0.90;100.00;102955.47;5114026;28;20069;-39
2024/01/20 10:17:29;;;;;;;22.80;15.52;;;;;;;-0.95;100.00;102948.78;5114640;28;20265;-39
2024/01/20 10:19:54;;;;;;;19.30;14.55;;;;;;;-0.91;100.00;102948.47;5114376;28;20079;-39
2024/01/20 10:22:19;;;;;;;19.73;15.47;;;;;;;-1.00;100.00;102930.50;5114278;28;20031;-39
2024/01/20 10:24:54;;;;;;;21.17;15.50;;;;;;;-0.86;100.00;102969.41;5114974;28;20035;-39
2024/01/20 10:27:20;;;;;;;19.77;14.75;;;;;;;-0.87;100.00;102973.00;5114180;28;20153;-39
2024/01/20 10:29:47;;;;;;;20.63;14.48;;;;;;;-0.93;100.00;102968.94;5114413;28;20062;-39
2024/01/20 10:32:13;;;;;;;20.08;14.93;;;;;;;-0.99;100.00;102934.84;5113136;28;20030;-39
2024/01/20 10:34:38;;;;;;;19.90;14.43;;;;;;;-0.75;100.00;102942.09;5114905;28;20024;-39
2024/01/20 10:37:13;;;;;;;19.50;14.60;;;;;;;-0.65;100.00;102954.63;5114005;28;20368;-39
2024/01/20 10:39:43;;;;;;;18.23;13.25;;;;;;;-0.68;100.00;102961.94;5113637;28;20513;-38
2024/01/20 10:42:13;;;;;;;18.42;14.70;;;;;;;-0.67;100.00;102956.56;5114263;28;20056;-38
2024/01/20 10:44:44;;;;;;;18.77;13.13;;;;;;;-0.55;100.00;102968.13;5114195;28;20020;-39
2024/01/20 10:47:27;;;;;;;16.42;13.77;;;;;;;-0.69;100.00;102934.53;5114644;28;20054;-39
2024/01/20 10:49:53;;;;;;;16.75;12.98;;;;;;;-0.56;100.00;102945.16;5114571;28;20114;-39
2024/01/20 10:52:19;;;;;;;18.83;14.63;;;;;;;-0.56;100.00;102955.81;5114461;28;20027;-39
2024/01/20 10:54:46;;;;;;;18.20;13.70;;;;;;;-0.58;100.00;102947.09;5113720;28;20038;-39
2024/01/20 10:57:11;;;;;;;17.65;12.85;;;;;;;-0.68;100.00;102924.75;5113943;28;20082;-39